Ana Sayfa
METAR-TAF:

METAR-TAF

Havaalanları :

Ercan Uluslararası Havalimanı

Lefkoşa, Kıbrıs

Enlem: 35-09N, Boylam: 033-30E, yükseklik: 91 m

Güncel hava durumu gözlemi

Rapor saat 23:50 UTC de 36 dakika önce yapıldı.
Rüzgar batı/kuzeybatıdan 10 kt
Sıcaklık 24°C
Nem 78%
Basınç 1010 hPa
Görüş mesafesi 10 km veya daha fazla
2500 ft yükseklikte az bulutlu

METAR: LCEN 202350Z 30010KT 9999 FEW025 24/20 Q1010 NOSIG RMK RWY11 30007KT

Saat: 03:26 (00:26 UTC)

Tahmin

Rapor saat 22:40 UTC de 1 saat ve 46 dakika önce yapıldı.
Ayın 21'si saat 00 UTC'den ayın 21'si saat 24 UTC'ye kadar geçerli Tahmin
Rüzgar batı/kuzeybatıdan 12 kt
Görüş mesafesi 10 km veya daha fazla
2500 ft yükseklikte az bulutlu
Olasılık 30% :
Geçici
ayın 21'si saat 00 UTC'den ayın 21'si saat 04 UTC'ye kadar
Rüzgar değişken yönden 2 kt
Görüş mesafesi: 4000 m
1000 ft yükseklikte parçalı çok bulutlu
Pus

TAF: LCEN 202240Z 2100/2124 29012KT 9999 FEW025 PROB30 TEMPO 2100/2104 VRB02KT 4000 BR BKN010

4.000'den fazla havaalanı için hava durumu gözlemleri ve tahminleri (METAR ve TAF raporları).

Kullanılabilir istasyonlar harita üzerinde sarı ve kırmızı noktalarla gösterilir.

İstasyonun adını görmek için fareyi noktanın üzerinde gezdirin.

Sonrasında hava gözlem ve tahminlerini görmek için tıklayın.

Haritayı değiştirmek için: yaklaştırmak için siyah artı işaretli yeşil düğmeye ve uzaklaştırmak için de eksi işaretli düğmeye hızla tıklayın; bitişik haritalar için yeşil okları kullanın.


METAR-TAF: